createdAt,value
2022-09-13T00:01:39.071Z,1.80
2022-09-13T00:04:10.734Z,1.50
2022-09-13T00:06:39.115Z,1.60
2022-09-13T00:09:07.289Z,1.60
2022-09-13T00:11:35.225Z,1.70
2022-09-13T00:14:05.617Z,1.80
2022-09-13T00:16:35.425Z,2.10
2022-09-13T00:19:03.591Z,1.70
2022-09-13T00:21:32.418Z,1.90
2022-09-13T00:24:00.433Z,1.90
2022-09-13T00:26:48.276Z,1.90
2022-09-13T00:29:17.598Z,2.00
2022-09-13T00:31:46.095Z,2.00
2022-09-13T00:34:14.133Z,1.60
2022-09-13T00:36:43.813Z,2.00
2022-09-13T00:39:11.797Z,1.90
2022-09-13T00:41:39.849Z,1.70
2022-09-13T00:44:45.534Z,1.80
2022-09-13T00:47:16.353Z,1.90
2022-09-13T00:49:48.530Z,2.00
2022-09-13T00:52:20.708Z,2.10
2022-09-13T00:54:59.237Z,1.60
2022-09-13T00:57:29.319Z,1.80
2022-09-13T01:00:11.087Z,1.80
2022-09-13T01:02:46.679Z,1.50
2022-09-13T01:05:17.322Z,1.10
2022-09-13T01:07:46.506Z,1.70
2022-09-13T01:10:15.120Z,1.30
2022-09-13T01:13:02.232Z,1.40
2022-09-13T01:15:30.281Z,1.40
2022-09-13T01:17:58.462Z,1.30
2022-09-13T01:20:40.738Z,1.60
2022-09-13T01:23:38.944Z,1.60
2022-09-13T01:26:27.472Z,1.50
2022-09-13T01:29:17.551Z,1.50
2022-09-13T01:32:17.510Z,1.70
2022-09-13T01:35:15.479Z,1.80
2022-09-13T01:38:12.836Z,1.80
2022-09-13T01:41:25.519Z,1.40
2022-09-13T01:44:28.554Z,1.70
2022-09-13T01:47:23.104Z,1.40
2022-09-13T01:50:28.992Z,2.00
2022-09-13T01:53:03.521Z,2.00
2022-09-13T01:55:41.125Z,2.00
2022-09-13T01:58:24.144Z,1.90
2022-09-13T02:01:09.468Z,1.60
2022-09-13T02:03:46.106Z,1.60
2022-09-13T02:06:20.924Z,1.40
2022-09-13T02:08:57.389Z,1.60
2022-09-13T02:11:25.401Z,1.20
2022-09-13T02:14:04.229Z,1.20
2022-09-13T02:16:43.011Z,1.00
2022-09-13T02:19:21.011Z,1.70
2022-09-13T02:21:58.910Z,1.50
2022-09-13T02:24:33.823Z,1.60
2022-09-13T02:27:12.362Z,1.50
2022-09-13T02:29:45.358Z,1.50
2022-09-13T02:32:23.668Z,1.90
2022-09-13T02:34:57.482Z,1.80
2022-09-13T02:37:28.207Z,1.80
2022-09-13T02:40:03.012Z,1.60
2022-09-13T02:42:42.134Z,1.60
2022-09-13T02:45:14.581Z,1.50
2022-09-13T02:47:54.186Z,2.00
2022-09-13T02:50:52.259Z,2.10
2022-09-13T02:53:31.491Z,1.60
2022-09-13T02:56:22.917Z,1.70
2022-09-13T02:59:01.228Z,1.50
2022-09-13T03:01:31.392Z,2.00
2022-09-13T03:03:59.519Z,1.80
2022-09-13T03:06:31.234Z,2.20
2022-09-13T03:09:04.327Z,1.50
2022-09-13T03:11:54.814Z,2.00
2022-09-13T03:14:53.665Z,1.60
2022-09-13T03:17:42.179Z,1.40
2022-09-13T03:20:21.874Z,1.20
2022-09-13T03:23:18.823Z,1.40
2022-09-13T03:26:14.479Z,1.80
2022-09-13T03:29:03.899Z,1.10
2022-09-13T03:31:49.751Z,1.20
2022-09-13T03:34:32.225Z,1.40
2022-09-13T03:37:11.093Z,1.60
2022-09-13T03:39:48.464Z,1.60
2022-09-13T03:42:27.229Z,1.60
2022-09-13T03:44:57.969Z,1.60
2022-09-13T03:47:32.676Z,1.70
2022-09-13T03:50:02.181Z,2.10
2022-09-13T03:52:30.370Z,1.90
2022-09-13T03:54:59.106Z,1.70
2022-09-13T03:57:27.544Z,1.60
2022-09-13T03:59:57.048Z,1.90
2022-09-13T04:02:26.773Z,1.60
2022-09-13T04:05:01.993Z,1.50
2022-09-13T04:07:30.443Z,1.60
2022-09-13T04:09:58.342Z,1.60
2022-09-13T04:12:28.564Z,1.40
2022-09-13T04:14:56.647Z,1.40
2022-09-13T04:17:24.878Z,1.50
2022-09-13T04:19:53.303Z,1.40
2022-09-13T04:22:21.300Z,1.40
2022-09-13T04:24:49.433Z,1.00
2022-09-13T04:27:17.550Z,1.30
2022-09-13T04:29:46.259Z,1.00
2022-09-13T04:32:14.364Z,1.20
2022-09-13T04:34:42.852Z,1.00
2022-09-13T04:37:12.120Z,1.20
2022-09-13T04:39:40.786Z,1.50
2022-09-13T04:42:10.346Z,1.30
2022-09-13T04:44:39.978Z,1.50
2022-09-13T04:47:08.858Z,1.40
2022-09-13T04:49:37.330Z,1.80
2022-09-13T04:52:07.454Z,1.60
2022-09-13T04:54:50.883Z,1.40
2022-09-13T04:57:18.990Z,1.60
2022-09-13T04:59:48.397Z,1.60
2022-09-13T05:02:18.074Z,1.50
2022-09-13T05:04:46.164Z,1.50
2022-09-13T05:07:57.074Z,2.00
2022-09-13T05:10:56.639Z,1.70
2022-09-13T05:17:39.410Z,1.30
2022-09-13T05:20:48.766Z,1.40
2022-09-13T05:23:40.920Z,1.00
2022-09-13T05:26:27.896Z,1.40
2022-09-13T05:29:10.641Z,1.20
2022-09-13T05:32:18.593Z,0.90
2022-09-13T05:35:14.889Z,1.20
2022-09-13T05:41:41.597Z,1.20
2022-09-13T05:45:06.107Z,1.90
2022-09-13T05:48:32.215Z,1.40
2022-09-13T05:51:36.614Z,1.50
2022-09-13T05:54:39.600Z,1.20
2022-09-13T05:57:30.490Z,1.20
2022-09-13T06:01:07.574Z,1.40
2022-09-13T06:04:32.075Z,1.00
2022-09-13T06:07:29.715Z,1.20
2022-09-13T06:10:05.905Z,1.10
2022-09-13T06:12:54.966Z,0.90
2022-09-13T06:15:58.604Z,1.30
2022-09-13T06:18:30.995Z,1.10
2022-09-13T06:21:04.684Z,0.90
2022-09-13T06:23:54.020Z,1.00
2022-09-13T06:26:25.087Z,1.20
2022-09-13T06:28:58.060Z,1.00
2022-09-13T06:31:35.337Z,1.10
2022-09-13T06:34:04.806Z,1.30
2022-09-13T06:36:46.511Z,0.90
2022-09-13T06:39:19.624Z,1.00
2022-09-13T06:41:55.459Z,0.90
2022-09-13T06:44:32.952Z,0.80
2022-09-13T06:47:02.053Z,0.90
2022-09-13T06:49:32.062Z,0.60
2022-09-13T06:52:41.591Z,0.70
2022-09-13T06:55:17.920Z,0.60
2022-09-13T06:57:51.229Z,0.40
2022-09-13T07:00:27.759Z,0.60
2022-09-13T07:03:01.558Z,0.50
2022-09-13T07:05:30.079Z,0.50
2022-09-13T07:09:37.645Z,0.50
2022-09-13T07:19:57.226Z,0.60
2022-09-13T07:27:19.845Z,0.40
2022-09-13T07:30:53.596Z,0.50
2022-09-13T07:34:17.216Z,0.50
2022-09-13T07:37:53.566Z,0.40
2022-09-13T07:42:04.909Z,0.80
2022-09-13T07:45:13.320Z,0.70
2022-09-13T07:49:07.515Z,0.60
2022-09-13T08:03:53.887Z,0.60
2022-09-13T08:06:35.313Z,0.60
2022-09-13T08:09:11.525Z,0.90
2022-09-13T08:12:07.357Z,0.80
2022-09-13T08:14:35.644Z,0.80
2022-09-13T08:17:31.994Z,0.70
2022-09-13T08:20:04.891Z,0.90
2022-09-13T08:22:37.991Z,0.60
2022-09-13T08:25:43.668Z,0.90
2022-09-13T08:29:52.804Z,0.80
2022-09-13T08:32:43.770Z,0.80
2022-09-13T08:35:22.498Z,0.60
2022-09-13T08:37:50.654Z,0.70
2022-09-13T08:40:24.628Z,0.90
2022-09-13T08:43:22.332Z,1.00
2022-09-13T08:46:19.446Z,1.10
2022-09-13T08:49:02.128Z,0.80
2022-09-13T08:51:48.131Z,0.90
2022-09-13T08:54:18.973Z,1.10
2022-09-13T08:57:26.490Z,0.90
2022-09-13T09:00:58.663Z,1.00
2022-09-13T09:04:28.710Z,0.80
2022-09-13T09:07:23.565Z,0.80
2022-09-13T09:09:58.794Z,1.00
2022-09-13T09:12:40.107Z,1.00
2022-09-13T09:16:17.571Z,0.60
2022-09-13T09:19:05.848Z,0.90
2022-09-13T09:21:37.983Z,1.20
2022-09-13T09:24:36.805Z,1.00
2022-09-13T09:27:24.435Z,1.00
2022-09-13T09:30:56.126Z,1.10
2022-09-13T09:34:14.837Z,1.00
2022-09-13T09:37:13.376Z,0.90
2022-09-13T09:40:11.446Z,1.10
2022-09-13T09:42:47.883Z,0.90
2022-09-13T09:45:26.719Z,1.10
2022-09-13T09:48:01.743Z,0.80
2022-09-13T09:50:34.301Z,0.80
2022-09-13T09:53:14.761Z,0.70
2022-09-13T09:55:50.462Z,0.60
2022-09-13T09:58:38.404Z,0.90
2022-09-13T10:01:19.690Z,0.70
2022-09-13T10:04:12.399Z,0.90
2022-09-13T10:06:42.029Z,0.60
2022-09-13T10:09:29.881Z,0.60
2022-09-13T10:11:59.583Z,0.80
2022-09-13T10:14:38.507Z,0.60
2022-09-13T10:17:27.600Z,0.60
2022-09-13T10:20:01.587Z,0.70
2022-09-13T10:22:32.440Z,0.70
2022-09-13T10:25:14.258Z,0.90
2022-09-13T10:27:47.776Z,1.00
2022-09-13T10:30:42.280Z,0.60
2022-09-13T10:33:25.966Z,0.70
2022-09-13T10:35:57.854Z,0.80
2022-09-13T10:38:45.530Z,1.00
2022-09-13T10:41:24.795Z,0.80
2022-09-13T10:44:09.642Z,0.70
2022-09-13T10:47:08.950Z,0.90
2022-09-13T10:49:53.184Z,1.10
2022-09-13T10:52:31.007Z,1.10
2022-09-13T10:55:33.853Z,1.10
2022-09-13T10:58:18.423Z,0.90
2022-09-13T11:01:13.530Z,1.00
2022-09-13T11:04:16.019Z,1.00
2022-09-13T11:07:23.438Z,0.80
2022-09-13T11:10:17.013Z,0.90
2022-09-13T11:13:15.718Z,0.50
2022-09-13T11:20:36.019Z,0.90
2022-09-13T11:23:47.662Z,0.70
2022-09-13T11:26:54.294Z,0.70
2022-09-13T11:30:00.227Z,0.80
2022-09-13T11:33:01.341Z,0.90
2022-09-13T11:35:50.890Z,0.90
2022-09-13T11:38:36.972Z,0.80
2022-09-13T11:41:42.912Z,1.00
2022-09-13T11:44:58.538Z,1.00
2022-09-13T11:48:16.213Z,0.80
2022-09-13T11:51:20.136Z,0.90
2022-09-13T11:54:33.031Z,1.00
2022-09-13T11:57:22.166Z,1.20
2022-09-13T12:00:33.281Z,0.80
2022-09-13T12:03:44.617Z,1.10
2022-09-13T12:06:27.864Z,1.10
2022-09-13T12:09:36.553Z,0.90
2022-09-13T12:13:05.386Z,0.80
2022-09-13T12:15:57.398Z,1.30
2022-09-13T12:18:32.701Z,1.00
2022-09-13T12:21:10.249Z,1.30
2022-09-13T12:23:50.308Z,1.10
2022-09-13T12:26:24.106Z,1.10
2022-09-13T12:28:56.978Z,1.40
2022-09-13T12:31:31.455Z,1.00
2022-09-13T12:34:02.980Z,1.00
2022-09-13T12:36:53.574Z,1.00
2022-09-13T12:39:43.740Z,1.10
2022-09-13T12:42:44.259Z,1.10
2022-09-13T12:45:54.781Z,1.10
2022-09-13T12:48:49.528Z,0.90
2022-09-13T12:51:52.695Z,0.90
2022-09-13T12:54:43.343Z,0.80
2022-09-13T12:57:39.724Z,1.00
2022-09-13T13:00:34.959Z,1.10
2022-09-13T13:03:13.783Z,1.20
2022-09-13T13:05:50.764Z,1.30
2022-09-13T13:08:29.595Z,0.90
2022-09-13T13:11:06.377Z,1.30
2022-09-13T13:14:00.698Z,1.10
2022-09-13T13:16:39.056Z,1.00
2022-09-13T13:19:34.026Z,0.90
2022-09-13T13:22:42.129Z,0.80
2022-09-13T13:25:39.034Z,0.90
2022-09-13T13:28:47.170Z,0.90
2022-09-13T13:31:36.083Z,0.90
2022-09-13T13:35:02.523Z,0.80
2022-09-13T13:37:35.015Z,1.00
2022-09-13T13:40:21.185Z,1.00
2022-09-13T13:42:49.378Z,0.90
2022-09-13T13:45:22.342Z,1.00
2022-09-13T13:48:07.718Z,0.80
2022-09-13T13:50:56.296Z,1.10
2022-09-13T13:53:36.372Z,0.90
2022-09-13T13:56:17.437Z,0.90
2022-09-13T13:58:50.719Z,0.80
2022-09-13T14:01:25.324Z,0.70
2022-09-13T14:04:29.651Z,1.00
2022-09-13T14:07:22.064Z,0.80
2022-09-13T14:10:20.464Z,1.00
2022-09-13T14:13:16.108Z,0.80
2022-09-13T14:16:00.882Z,0.80
2022-09-13T14:18:55.493Z,0.80
2022-09-13T14:21:27.208Z,0.90
2022-09-13T14:24:24.579Z,0.70
2022-09-13T14:26:59.021Z,0.90
2022-09-13T14:29:27.510Z,1.00
2022-09-13T14:32:03.344Z,1.50
2022-09-13T14:34:36.812Z,0.90
2022-09-13T14:37:07.599Z,0.90
2022-09-13T14:39:35.567Z,1.00
2022-09-13T14:42:18.758Z,0.90
2022-09-13T14:44:50.431Z,0.80
2022-09-13T14:47:36.630Z,0.90
2022-09-13T14:50:13.277Z,0.90
2022-09-13T14:52:56.371Z,1.10
2022-09-13T14:55:33.635Z,1.10
2022-09-13T14:58:07.525Z,1.10
2022-09-13T15:00:59.637Z,0.90
2022-09-13T15:03:30.441Z,1.10
2022-09-13T15:06:02.846Z,0.90
2022-09-13T15:08:50.833Z,1.30
2022-09-13T15:11:37.993Z,1.20
2022-09-13T15:14:23.575Z,1.30
2022-09-13T15:17:10.745Z,1.40
2022-09-13T15:19:42.012Z,1.10
2022-09-13T15:22:24.775Z,1.40
2022-09-13T15:24:57.778Z,1.40
2022-09-13T15:27:31.322Z,1.00
2022-09-13T15:30:28.817Z,1.40
2022-09-13T15:33:22.057Z,1.30
2022-09-13T15:35:50.121Z,1.30
2022-09-13T15:38:26.184Z,1.50
2022-09-13T15:43:33.168Z,1.50
2022-09-13T15:46:02.674Z,1.50
2022-09-13T15:48:33.521Z,1.50
2022-09-13T15:51:15.926Z,1.70
2022-09-13T15:53:46.226Z,1.70
2022-09-13T15:56:20.632Z,1.80
2022-09-13T15:58:49.714Z,1.50
2022-09-13T16:01:18.549Z,1.50
2022-09-13T16:03:46.528Z,1.60
2022-09-13T16:06:15.136Z,1.40
2022-09-13T16:08:43.611Z,1.60
2022-09-13T16:11:11.889Z,2.00
2022-09-13T16:13:40.629Z,2.00
2022-09-13T16:16:15.276Z,2.10
2022-09-13T16:18:43.497Z,1.70
2022-09-13T16:21:11.490Z,3.00
2022-09-13T16:23:53.935Z,2.70
2022-09-13T16:26:21.957Z,1.80
2022-09-13T16:29:22.410Z,1.60
2022-09-13T16:32:15.500Z,1.80
2022-09-13T16:35:00.845Z,1.50
2022-09-13T16:37:28.983Z,2.30
2022-09-13T16:40:21.890Z,2.20
2022-09-13T16:42:59.597Z,1.80
2022-09-13T16:45:27.717Z,4.90
2022-09-13T16:47:56.055Z,7.30
2022-09-13T16:50:24.216Z,5.40
2022-09-13T16:52:52.172Z,4.20
2022-09-13T16:55:20.103Z,4.10
2022-09-13T16:57:50.264Z,4.20
2022-09-13T17:00:20.114Z,4.20
2022-09-13T17:02:48.219Z,4.80
2022-09-13T17:05:16.675Z,5.90
2022-09-13T17:07:44.613Z,4.30
2022-09-13T17:10:13.179Z,5.40
2022-09-13T17:12:41.110Z,7.10
2022-09-13T17:15:09.934Z,8.30
2022-09-13T17:17:38.376Z,7.70
2022-09-13T17:20:12.286Z,7.90
2022-09-13T17:22:41.090Z,5.40
2022-09-13T17:25:10.512Z,6.20
2022-09-13T17:27:38.423Z,5.60
2022-09-13T17:30:50.025Z,3.00
2022-09-13T17:33:18.098Z,3.20
2022-09-13T17:35:45.974Z,2.40
2022-09-13T17:38:15.252Z,2.30
2022-09-13T17:40:46.098Z,2.20
2022-09-13T17:43:13.966Z,2.00
2022-09-13T17:45:41.819Z,1.90
2022-09-13T17:48:09.698Z,1.90
2022-09-13T17:50:37.961Z,1.30
2022-09-13T17:53:05.863Z,1.80
2022-09-13T17:55:33.908Z,2.00
2022-09-13T17:58:01.775Z,1.70
2022-09-13T18:00:29.805Z,2.10
2022-09-13T18:02:57.710Z,1.80
2022-09-13T18:05:25.576Z,2.10
2022-09-13T18:07:53.396Z,2.30
2022-09-13T18:10:45.566Z,2.30
2022-09-13T18:13:09.834Z,1.50
2022-09-13T18:15:37.777Z,1.80
2022-09-13T18:18:05.845Z,2.30
2022-09-13T18:20:38.559Z,2.00
2022-09-13T18:23:08.499Z,2.00
2022-09-13T18:25:36.378Z,1.90
2022-09-13T18:28:10.710Z,2.20
2022-09-13T18:30:50.998Z,2.00
2022-09-13T18:33:21.487Z,1.70
2022-09-13T18:36:08.355Z,2.20
2022-09-13T18:38:41.864Z,2.30
2022-09-13T18:41:13.551Z,1.80
2022-09-13T18:43:45.000Z,2.10
2022-09-13T18:46:19.614Z,2.50
2022-09-13T18:48:49.546Z,2.10
2022-09-13T18:51:20.068Z,2.40
2022-09-13T18:53:49.127Z,2.40
2022-09-13T18:56:24.305Z,2.50
2022-09-13T18:58:53.421Z,2.60
2022-09-13T19:01:31.637Z,2.40
2022-09-13T19:04:03.370Z,2.50
2022-09-13T19:06:42.102Z,2.50
2022-09-13T19:09:11.843Z,2.30
2022-09-13T19:11:47.372Z,2.80
2022-09-13T19:14:26.091Z,1.90
2022-09-13T19:16:56.810Z,2.00
2022-09-13T19:19:30.582Z,2.20
2022-09-13T19:21:59.606Z,2.50
2022-09-13T19:24:33.883Z,1.90
2022-09-13T19:27:02.583Z,2.40
2022-09-13T19:29:30.584Z,2.50
2022-09-13T19:31:58.558Z,2.80
2022-09-13T19:34:30.058Z,2.30
2022-09-13T19:36:58.502Z,2.50
2022-09-13T19:39:30.468Z,2.80
2022-09-13T19:42:00.608Z,2.10
2022-09-13T19:44:29.105Z,2.10
2022-09-13T19:47:36.418Z,2.20
2022-09-13T19:49:45.773Z,2.20
2022-09-13T19:52:13.648Z,2.40
2022-09-13T19:54:50.619Z,2.40
2022-09-13T19:57:21.855Z,2.40
2022-09-13T19:59:50.050Z,2.40
2022-09-13T20:02:18.008Z,2.80
2022-09-13T20:04:47.484Z,2.70
2022-09-13T20:07:15.765Z,2.50
2022-09-13T20:09:46.880Z,2.50
2022-09-13T20:12:14.893Z,2.60
2022-09-13T20:14:43.263Z,2.70
2022-09-13T20:17:11.349Z,2.50
2022-09-13T20:19:42.804Z,2.80
2022-09-13T20:22:13.244Z,2.50
2022-09-13T20:24:41.527Z,2.30
2022-09-13T20:27:10.111Z,2.30
2022-09-13T20:29:38.147Z,2.70
2022-09-13T20:32:06.335Z,2.10
2022-09-13T20:34:35.231Z,2.50
2022-09-13T20:37:03.293Z,1.90
2022-09-13T20:42:54.142Z,2.30
2022-09-13T20:45:22.030Z,2.10
2022-09-13T20:47:50.154Z,2.00
2022-09-13T20:50:20.345Z,2.10
2022-09-13T20:52:48.471Z,1.80
2022-09-13T20:55:16.652Z,1.70
2022-09-13T20:57:44.724Z,2.00
2022-09-13T21:00:13.103Z,1.80
2022-09-13T21:02:41.952Z,2.40
2022-09-13T21:05:12.013Z,1.90
2022-09-13T21:07:55.147Z,2.00
2022-09-13T21:10:24.549Z,2.10
2022-09-13T21:12:53.125Z,2.00
2022-09-13T21:15:21.406Z,1.50
2022-09-13T21:17:51.192Z,2.40
2022-09-13T21:20:19.252Z,2.70
2022-09-13T21:22:48.172Z,2.30
2022-09-13T21:25:16.158Z,2.40
2022-09-13T21:27:46.782Z,2.20
2022-09-13T21:30:15.877Z,2.10
2022-09-13T21:32:43.944Z,2.10
2022-09-13T21:35:11.790Z,2.30
2022-09-13T21:37:39.677Z,1.90
2022-09-13T21:40:08.150Z,2.00
2022-09-13T21:42:39.205Z,2.00
2022-09-13T21:45:07.810Z,2.10
2022-09-13T21:47:35.857Z,1.80
2022-09-13T21:50:03.960Z,2.30
2022-09-13T21:52:32.115Z,1.90
2022-09-13T21:55:00.188Z,1.80
2022-09-13T21:57:28.157Z,1.90
2022-09-13T21:59:56.030Z,1.60
2022-09-13T22:02:24.185Z,1.50
2022-09-13T22:04:52.231Z,1.50
2022-09-13T22:07:20.132Z,1.30
2022-09-13T22:09:48.106Z,1.50
2022-09-13T22:12:16.464Z,1.60
2022-09-13T22:14:44.752Z,1.90
2022-09-13T22:17:13.096Z,1.70
2022-09-13T22:19:41.109Z,2.10
2022-09-13T22:22:09.378Z,1.90
2022-09-13T22:24:37.293Z,2.40
2022-09-13T22:27:07.129Z,2.30
2022-09-13T22:29:35.155Z,1.90
2022-09-13T22:32:03.602Z,2.20
2022-09-13T22:34:34.875Z,1.80
2022-09-13T22:37:03.773Z,1.70
2022-09-13T22:39:31.628Z,1.60
2022-09-13T22:42:00.826Z,2.00
2022-09-13T22:44:28.793Z,2.40
2022-09-13T22:47:00.463Z,2.30
2022-09-13T22:49:28.440Z,2.10
2022-09-13T22:51:56.428Z,2.40
2022-09-13T22:54:25.902Z,1.90
2022-09-13T22:56:53.889Z,2.60
2022-09-13T22:59:22.353Z,2.00
2022-09-13T23:01:50.831Z,1.80
2022-09-13T23:04:19.067Z,1.80
2022-09-13T23:06:47.080Z,1.90
2022-09-13T23:09:18.268Z,1.80
2022-09-13T23:11:47.724Z,2.30
2022-09-13T23:14:17.514Z,1.90
2022-09-13T23:16:50.100Z,1.60
2022-09-13T23:19:20.634Z,1.50
2022-09-13T23:21:48.875Z,1.80
2022-09-13T23:24:18.346Z,2.50
2022-09-13T23:26:48.418Z,1.70
2022-09-13T23:29:19.237Z,2.10
2022-09-13T23:31:48.866Z,2.20
2022-09-13T23:34:17.858Z,2.10
2022-09-13T23:36:46.985Z,1.90
2022-09-13T23:39:22.328Z,1.80
2022-09-13T23:41:52.530Z,1.60
2022-09-13T23:44:20.636Z,1.50
2022-09-13T23:46:49.200Z,1.60
2022-09-13T23:49:19.559Z,1.10
2022-09-13T23:51:48.937Z,1.30
2022-09-13T23:54:19.470Z,1.60
2022-09-13T23:56:47.733Z,1.40
2022-09-13T23:59:15.812Z,1.00
